createdAt,value
2019-01-14T00:00:48.231Z,984.15
2019-01-14T00:01:48.259Z,984.31
2019-01-14T00:02:48.296Z,984.20
2019-01-14T00:03:48.319Z,984.35
2019-01-14T00:04:55.356Z,984.33
2019-01-14T00:05:48.382Z,984.35
2019-01-14T00:06:48.408Z,984.22
2019-01-14T00:07:48.438Z,984.27
2019-01-14T00:08:48.467Z,984.29
2019-01-14T00:09:48.496Z,984.46
2019-01-14T00:10:48.526Z,984.42
2019-01-14T00:11:48.558Z,984.55
2019-01-14T00:12:48.588Z,984.49
2019-01-14T00:13:48.618Z,984.64
2019-01-14T00:14:48.645Z,984.57
2019-01-14T00:15:48.680Z,984.62
2019-01-14T00:16:48.706Z,984.71
2019-01-14T00:17:48.743Z,984.71
2019-01-14T00:18:48.764Z,984.82
2019-01-14T00:19:48.795Z,984.71
2019-01-14T00:20:48.826Z,984.76
2019-01-14T00:21:48.855Z,984.82
2019-01-14T00:22:48.884Z,984.79
2019-01-14T00:23:48.914Z,984.92
2019-01-14T00:24:48.946Z,984.86
2019-01-14T00:25:48.975Z,984.89
2019-01-14T00:26:49.004Z,984.87
2019-01-14T00:27:49.033Z,985.03
2019-01-14T00:28:49.062Z,984.89
2019-01-14T00:29:49.091Z,984.98
2019-01-14T00:30:49.123Z,984.97
2019-01-14T00:31:49.152Z,984.68
2019-01-14T00:32:49.182Z,984.75
2019-01-14T00:33:49.214Z,984.90
2019-01-14T00:34:49.241Z,984.88
2019-01-14T00:35:49.270Z,984.86
2019-01-14T00:36:49.299Z,984.85
2019-01-14T00:37:49.328Z,984.92
2019-01-14T00:38:49.359Z,984.98
2019-01-14T00:39:49.389Z,984.99
2019-01-14T00:40:49.419Z,984.92
2019-01-14T00:41:49.448Z,984.96
2019-01-14T00:42:49.477Z,985.10
2019-01-14T00:43:49.506Z,985.14
2019-01-14T00:44:49.537Z,985.18
2019-01-14T00:45:49.564Z,985.26
2019-01-14T00:46:49.607Z,985.17
2019-01-14T00:47:49.625Z,985.20
2019-01-14T00:48:49.654Z,985.28
2019-01-14T00:49:49.683Z,985.26
2019-01-14T00:50:49.713Z,985.35
2019-01-14T00:51:49.744Z,985.32
2019-01-14T00:52:49.772Z,985.32
2019-01-14T00:53:49.804Z,985.33
2019-01-14T00:54:49.831Z,985.40
2019-01-14T00:55:49.863Z,985.43
2019-01-14T00:56:49.891Z,985.45
2019-01-14T00:57:49.920Z,985.49
2019-01-14T00:58:49.951Z,985.61
2019-01-14T00:59:49.980Z,985.52
2019-01-14T01:00:50.011Z,985.59
2019-01-14T01:01:50.039Z,985.55
2019-01-14T01:02:50.068Z,985.67
2019-01-14T01:03:50.099Z,985.67
2019-01-14T01:04:50.129Z,985.65
2019-01-14T01:05:50.157Z,985.57
2019-01-14T01:06:50.188Z,985.71
2019-01-14T01:07:50.215Z,985.66
2019-01-14T01:08:50.245Z,985.94
2019-01-14T01:09:50.277Z,985.88
2019-01-14T01:10:50.304Z,985.81
2019-01-14T01:11:50.337Z,985.84
2019-01-14T01:12:50.364Z,985.73
2019-01-14T01:13:50.392Z,985.84
2019-01-14T01:14:50.423Z,985.86
2019-01-14T01:15:50.451Z,985.82
2019-01-14T01:16:50.482Z,985.83
2019-01-14T01:17:50.512Z,986.01
2019-01-14T01:18:50.544Z,985.87
2019-01-14T01:19:50.569Z,986.01
2019-01-14T01:20:50.600Z,985.95
2019-01-14T01:21:50.629Z,986.11
2019-01-14T01:22:50.657Z,986.01
2019-01-14T01:23:50.687Z,986.16
2019-01-14T01:24:50.717Z,986.08
2019-01-14T01:25:50.746Z,986.09
2019-01-14T01:26:50.775Z,986.24
2019-01-14T01:27:50.811Z,986.22
2019-01-14T01:28:50.835Z,986.22
2019-01-14T01:29:50.864Z,986.20
2019-01-14T01:30:50.893Z,986.26
2019-01-14T01:31:50.922Z,986.17
2019-01-14T01:32:50.954Z,986.32
2019-01-14T01:33:50.982Z,986.34
2019-01-14T01:34:51.011Z,986.27
2019-01-14T01:35:51.042Z,986.37
2019-01-14T01:36:51.079Z,986.46
2019-01-14T01:37:51.098Z,986.46
2019-01-14T01:38:51.127Z,986.41
2019-01-14T01:39:51.159Z,986.62
2019-01-14T01:40:51.194Z,986.54
2019-01-14T01:41:51.218Z,986.58
2019-01-14T01:42:51.247Z,986.43
2019-01-14T01:43:51.276Z,986.49
2019-01-14T01:44:51.304Z,986.65
2019-01-14T01:45:51.335Z,986.80
2019-01-14T01:46:51.364Z,986.85
2019-01-14T01:47:51.395Z,986.59
2019-01-14T01:48:51.426Z,986.78
2019-01-14T01:49:51.454Z,986.70
2019-01-14T01:50:51.483Z,986.91
2019-01-14T01:51:51.511Z,986.86
2019-01-14T01:52:51.542Z,986.98
2019-01-14T01:53:51.569Z,987.05
2019-01-14T01:54:51.598Z,986.87
2019-01-14T01:55:51.629Z,987.07
2019-01-14T01:56:51.657Z,987.02
2019-01-14T01:57:51.688Z,986.90
2019-01-14T01:58:51.718Z,987.12
2019-01-14T01:59:51.746Z,987.10
2019-01-14T02:00:51.775Z,987.15
2019-01-14T02:01:51.804Z,987.10
2019-01-14T02:02:51.834Z,987.10
2019-01-14T02:03:51.866Z,987.00
2019-01-14T02:04:51.894Z,987.13
2019-01-14T02:05:51.922Z,987.20
2019-01-14T02:06:51.953Z,987.17
2019-01-14T02:07:51.984Z,987.25
2019-01-14T02:08:52.012Z,987.16
2019-01-14T02:09:52.040Z,987.30
2019-01-14T02:10:52.070Z,987.29
2019-01-14T02:11:52.098Z,987.40
2019-01-14T02:12:52.130Z,987.36
2019-01-14T02:13:52.157Z,987.36
2019-01-14T02:14:52.186Z,987.39
2019-01-14T02:15:52.216Z,987.51
2019-01-14T02:16:52.246Z,987.46
2019-01-14T02:17:52.277Z,987.57
2019-01-14T02:18:52.302Z,987.57
2019-01-14T02:19:52.332Z,987.50
2019-01-14T02:20:52.361Z,987.42
2019-01-14T02:21:52.389Z,987.55
2019-01-14T02:22:52.420Z,987.52
2019-01-14T02:23:52.449Z,987.79
2019-01-14T02:24:52.484Z,987.40
2019-01-14T02:25:52.514Z,987.62
2019-01-14T02:26:52.536Z,987.70
2019-01-14T02:27:52.566Z,987.46
2019-01-14T02:28:52.595Z,987.62
2019-01-14T02:29:52.625Z,987.68
2019-01-14T02:30:52.654Z,987.61
2019-01-14T02:31:52.682Z,987.85
2019-01-14T02:32:52.713Z,987.63
2019-01-14T02:33:52.742Z,987.77
2019-01-14T02:34:52.772Z,987.74
2019-01-14T02:35:52.801Z,987.77
2019-01-14T02:36:52.830Z,987.82
2019-01-14T02:37:52.858Z,987.76
2019-01-14T02:38:52.886Z,987.91
2019-01-14T02:39:52.916Z,987.90
2019-01-14T02:40:52.947Z,987.75
2019-01-14T02:41:52.975Z,987.89
2019-01-14T02:42:53.004Z,987.98
2019-01-14T02:43:53.036Z,987.94
2019-01-14T02:44:53.063Z,988.09
2019-01-14T02:45:53.092Z,988.24
2019-01-14T02:46:53.128Z,988.24
2019-01-14T02:47:53.150Z,988.26
2019-01-14T02:48:53.178Z,988.32
2019-01-14T02:49:53.213Z,988.23
2019-01-14T02:50:53.237Z,988.24
2019-01-14T02:51:53.266Z,988.26
2019-01-14T02:52:53.296Z,988.33
2019-01-14T02:53:53.324Z,988.25
2019-01-14T02:54:53.354Z,988.34
2019-01-14T02:55:53.383Z,988.48
2019-01-14T02:56:53.412Z,988.48
2019-01-14T02:57:53.440Z,988.34
2019-01-14T02:58:53.470Z,988.36
2019-01-14T02:59:53.500Z,988.42
2019-01-14T03:00:53.543Z,988.52
2019-01-14T03:01:53.559Z,988.71
2019-01-14T03:02:53.589Z,988.64
2019-01-14T03:03:53.616Z,988.66
2019-01-14T03:04:53.645Z,988.69
2019-01-14T03:05:53.674Z,988.70
2019-01-14T03:06:57.994Z,988.78
2019-01-14T03:07:53.732Z,988.86
2019-01-14T03:08:53.763Z,988.77
2019-01-14T03:09:53.791Z,988.82
2019-01-14T03:10:53.821Z,988.80
2019-01-14T03:11:53.849Z,989.12
2019-01-14T03:12:53.883Z,989.01
2019-01-14T03:13:53.914Z,989.08
2019-01-14T03:14:53.939Z,989.02
2019-01-14T03:15:53.966Z,989.04
2019-01-14T03:16:53.995Z,989.05
2019-01-14T03:17:54.028Z,989.06
2019-01-14T03:18:54.056Z,989.17
2019-01-14T03:19:54.086Z,989.12
2019-01-14T03:20:54.113Z,989.15
2019-01-14T03:21:54.150Z,989.26
2019-01-14T03:22:54.170Z,989.22
2019-01-14T03:23:54.199Z,989.28
2019-01-14T03:24:54.231Z,989.35
2019-01-14T03:25:58.345Z,989.39
2019-01-14T03:26:54.294Z,989.30
2019-01-14T03:27:54.317Z,989.38
2019-01-14T03:28:54.346Z,989.39
2019-01-14T03:29:54.377Z,989.43
2019-01-14T03:30:54.405Z,989.42
2019-01-14T03:31:54.435Z,989.56
2019-01-14T03:32:54.481Z,989.45
2019-01-14T03:33:54.496Z,989.44
2019-01-14T03:34:54.520Z,989.53
2019-01-14T03:35:54.554Z,989.44
2019-01-14T03:36:54.587Z,989.61
2019-01-14T03:37:54.609Z,989.56
2019-01-14T03:38:54.639Z,989.60
2019-01-14T03:39:54.667Z,989.68
2019-01-14T03:40:54.697Z,989.63
2019-01-14T03:41:54.727Z,989.71
2019-01-14T03:42:54.756Z,989.97
2019-01-14T03:43:54.786Z,989.63
2019-01-14T03:44:54.823Z,989.82
2019-01-14T03:45:54.843Z,989.74
2019-01-14T03:46:54.872Z,989.93
2019-01-14T03:47:54.901Z,989.79
2019-01-14T03:48:54.931Z,989.81
2019-01-14T03:49:54.958Z,989.83
2019-01-14T03:50:54.989Z,989.82
2019-01-14T03:51:55.017Z,989.87
2019-01-14T03:52:55.046Z,989.94
2019-01-14T03:53:55.074Z,989.85
2019-01-14T03:54:55.107Z,989.86
2019-01-14T03:55:55.136Z,989.76
2019-01-14T03:56:55.163Z,989.85
2019-01-14T03:57:55.192Z,989.94
2019-01-14T03:58:55.220Z,989.95
2019-01-14T03:59:55.250Z,990.05
2019-01-14T04:00:55.285Z,989.94
2019-01-14T04:01:55.309Z,989.97
2019-01-14T04:02:55.339Z,989.89
2019-01-14T04:03:55.367Z,990.11
2019-01-14T04:04:55.397Z,990.20
2019-01-14T04:05:55.426Z,990.09
2019-01-14T04:06:55.454Z,990.37
2019-01-14T04:07:55.485Z,990.36
2019-01-14T04:08:55.514Z,990.00
2019-01-14T04:09:55.541Z,990.24
2019-01-14T04:10:55.573Z,990.21
2019-01-14T04:11:55.601Z,990.20
2019-01-14T04:12:55.630Z,990.20
2019-01-14T04:13:55.656Z,990.24
2019-01-14T04:14:55.719Z,990.22
2019-01-14T04:15:55.717Z,990.38
2019-01-14T04:16:55.749Z,990.31
2019-01-14T04:17:55.777Z,990.31
2019-01-14T04:18:55.804Z,990.35
2019-01-14T04:19:55.836Z,990.28
2019-01-14T04:20:55.861Z,990.23
2019-01-14T04:21:55.894Z,990.21
2019-01-14T04:22:55.918Z,990.29
2019-01-14T04:23:55.949Z,990.31
2019-01-14T04:24:55.978Z,990.28
2019-01-14T04:25:56.007Z,990.38
2019-01-14T04:26:56.035Z,990.36
2019-01-14T04:27:56.063Z,990.38
2019-01-14T04:28:56.093Z,990.43
2019-01-14T04:29:56.135Z,990.52
2019-01-14T04:30:56.153Z,990.60
2019-01-14T04:31:56.181Z,990.49
2019-01-14T04:32:56.213Z,990.46
2019-01-14T04:33:56.238Z,990.47
2019-01-14T04:34:56.272Z,990.68
2019-01-14T04:35:56.300Z,990.55
2019-01-14T04:36:56.327Z,990.44
2019-01-14T04:37:56.354Z,990.53
2019-01-14T04:38:56.384Z,990.63
2019-01-14T04:39:56.411Z,990.59
2019-01-14T04:40:56.441Z,990.69
2019-01-14T04:41:56.468Z,990.89
2019-01-14T04:42:56.503Z,990.89
2019-01-14T04:43:56.528Z,990.88
2019-01-14T04:44:56.558Z,991.02
2019-01-14T04:45:56.587Z,990.94
2019-01-14T04:46:56.613Z,990.93
2019-01-14T04:47:56.643Z,991.03
2019-01-14T04:48:56.671Z,991.02
2019-01-14T04:49:56.699Z,991.10
2019-01-14T04:50:56.729Z,991.17
2019-01-14T04:51:56.760Z,991.07
2019-01-14T04:52:56.788Z,991.10
2019-01-14T04:53:56.815Z,991.12
2019-01-14T04:54:56.842Z,991.06
2019-01-14T04:55:56.872Z,991.06
2019-01-14T04:56:56.901Z,991.06
2019-01-14T04:57:56.931Z,991.23
2019-01-14T04:58:56.959Z,991.17
2019-01-14T04:59:56.986Z,991.17
2019-01-14T05:00:57.015Z,991.13
2019-01-14T05:01:57.044Z,991.09
2019-01-14T05:02:57.073Z,991.11
2019-01-14T05:03:57.100Z,991.23
2019-01-14T05:04:57.132Z,991.43
2019-01-14T05:05:57.158Z,991.29
2019-01-14T05:06:57.187Z,991.27
2019-01-14T05:07:57.217Z,991.36
2019-01-14T05:08:57.246Z,991.28
2019-01-14T05:09:57.273Z,991.25
2019-01-14T05:10:57.305Z,991.37
2019-01-14T05:11:57.331Z,991.35
2019-01-14T05:12:57.361Z,991.34
2019-01-14T05:13:57.387Z,991.45
2019-01-14T05:14:57.415Z,991.42
2019-01-14T05:15:57.445Z,991.41
2019-01-14T05:16:57.473Z,991.42
2019-01-14T05:17:57.501Z,991.41
2019-01-14T05:18:57.531Z,991.38
2019-01-14T05:19:57.558Z,991.48
2019-01-14T05:20:57.682Z,991.29
2019-01-14T05:21:57.615Z,991.48
2019-01-14T05:22:57.648Z,991.46
2019-01-14T05:23:57.674Z,991.46
2019-01-14T05:24:57.702Z,991.43
2019-01-14T05:25:57.730Z,991.30
2019-01-14T05:26:57.764Z,991.38
2019-01-14T05:27:57.786Z,991.43
2019-01-14T05:28:57.816Z,991.44
2019-01-14T05:29:57.848Z,991.57
2019-01-14T05:30:57.871Z,991.40
2019-01-14T05:31:57.901Z,991.53
2019-01-14T05:32:57.929Z,991.39
2019-01-14T05:33:57.962Z,991.57
2019-01-14T05:34:57.992Z,991.41
2019-01-14T05:35:58.017Z,991.43
2019-01-14T05:36:58.045Z,991.49
2019-01-14T05:37:58.073Z,991.41
2019-01-14T05:38:58.101Z,991.49
2019-01-14T05:39:58.129Z,991.50
2019-01-14T05:40:58.158Z,991.41
2019-01-14T05:41:58.187Z,991.48
2019-01-14T05:42:58.214Z,991.51
2019-01-14T05:43:58.247Z,991.47
2019-01-14T05:44:58.273Z,991.54
2019-01-14T05:45:58.300Z,991.48
2019-01-14T05:46:58.329Z,991.50
2019-01-14T05:47:58.357Z,991.43
2019-01-14T05:48:58.386Z,991.52
2019-01-14T05:49:58.415Z,991.53
2019-01-14T05:50:58.443Z,991.58
2019-01-14T05:51:58.475Z,991.67
2019-01-14T05:52:58.502Z,991.59
2019-01-14T05:53:58.527Z,991.63
2019-01-14T05:54:58.557Z,991.69
2019-01-14T05:55:58.585Z,991.65
2019-01-14T05:56:58.615Z,991.61
2019-01-14T05:57:58.642Z,991.63
2019-01-14T05:58:58.674Z,991.59
2019-01-14T05:59:58.698Z,991.57
2019-01-14T06:00:58.727Z,991.53
2019-01-14T06:01:58.758Z,991.56
2019-01-14T06:02:58.784Z,991.54
2019-01-14T06:03:58.813Z,991.60
2019-01-14T06:04:58.841Z,991.58
2019-01-14T06:05:58.869Z,991.60
2019-01-14T06:06:58.898Z,991.64
2019-01-14T06:07:58.927Z,991.60
2019-01-14T06:08:58.956Z,991.60
2019-01-14T06:09:58.983Z,991.61
2019-01-14T06:10:59.029Z,991.62
2019-01-14T06:11:59.042Z,991.56
2019-01-14T06:12:59.076Z,991.37
2019-01-14T06:13:59.097Z,991.56
2019-01-14T06:14:59.126Z,991.53
2019-01-14T06:15:59.155Z,991.64
2019-01-14T06:16:59.185Z,991.58
2019-01-14T06:17:59.210Z,991.57
2019-01-14T06:18:59.244Z,991.63
2019-01-14T06:19:59.273Z,991.56
2019-01-14T06:20:59.299Z,991.57
2019-01-14T06:21:59.326Z,991.64
2019-01-14T06:22:59.354Z,991.69
2019-01-14T06:23:59.383Z,991.78
2019-01-14T06:24:59.411Z,991.72
2019-01-14T06:25:59.439Z,991.78
2019-01-14T06:26:59.468Z,991.80
2019-01-14T06:27:59.497Z,991.86
2019-01-14T06:28:59.525Z,992.02
2019-01-14T06:29:59.553Z,992.07
2019-01-14T06:30:59.586Z,992.11
2019-01-14T06:31:59.609Z,992.05
2019-01-14T06:32:59.647Z,992.01
2019-01-14T06:33:59.666Z,992.09
2019-01-14T06:34:59.697Z,992.11
2019-01-14T06:35:59.728Z,991.99
2019-01-14T06:36:59.754Z,992.05
2019-01-14T06:37:59.784Z,992.09
2019-01-14T06:38:59.810Z,992.18
2019-01-14T06:39:59.840Z,992.24
2019-01-14T06:40:59.901Z,992.23
2019-01-14T06:41:59.895Z,992.21
2019-01-14T06:42:59.924Z,992.39
2019-01-14T06:43:59.951Z,992.64
2019-01-14T06:44:59.980Z,992.61
2019-01-14T06:46:00.008Z,992.69
2019-01-14T06:47:00.037Z,992.82
2019-01-14T06:48:00.065Z,992.95
2019-01-14T06:49:00.095Z,993.09
2019-01-14T06:50:00.123Z,993.09
2019-01-14T06:51:00.151Z,993.05
2019-01-14T06:52:00.186Z,993.02
2019-01-14T06:53:00.209Z,993.04
2019-01-14T06:54:00.237Z,992.98
2019-01-14T06:55:00.266Z,992.95
2019-01-14T06:56:00.293Z,992.91
2019-01-14T06:57:00.323Z,992.91
2019-01-14T06:58:00.351Z,992.92
2019-01-14T06:59:00.377Z,993.00
2019-01-14T07:00:00.406Z,992.95
2019-01-14T07:01:00.435Z,993.00
2019-01-14T07:02:00.463Z,992.92
2019-01-14T07:03:00.491Z,993.00
2019-01-14T07:04:00.525Z,992.92
2019-01-14T07:05:00.629Z,993.02
2019-01-14T07:06:00.582Z,993.07
2019-01-14T07:07:00.608Z,993.12
2019-01-14T07:08:00.640Z,993.20
2019-01-14T07:09:00.664Z,993.29
2019-01-14T07:10:00.693Z,993.25
2019-01-14T07:11:00.725Z,993.13
2019-01-14T07:12:00.751Z,993.31
2019-01-14T07:13:00.794Z,993.40
2019-01-14T07:14:00.805Z,993.41
2019-01-14T07:15:00.833Z,993.53
2019-01-14T07:16:00.861Z,993.42
2019-01-14T07:17:00.891Z,993.41
2019-01-14T07:18:00.919Z,993.50
2019-01-14T07:19:00.946Z,993.53
2019-01-14T07:20:00.975Z,993.43
2019-01-14T07:21:01.003Z,993.58
2019-01-14T07:22:01.034Z,993.55
2019-01-14T07:23:01.060Z,993.56
2019-01-14T07:24:01.088Z,993.65
2019-01-14T07:25:01.118Z,993.55
2019-01-14T07:26:01.143Z,993.63
2019-01-14T07:27:01.172Z,993.64
2019-01-14T07:28:01.202Z,993.62
2019-01-14T07:29:01.230Z,993.61
2019-01-14T07:30:01.258Z,993.65
2019-01-14T07:31:01.284Z,993.65
2019-01-14T07:32:01.314Z,993.72
2019-01-14T07:33:01.342Z,993.73
2019-01-14T07:34:01.371Z,993.66
2019-01-14T07:35:02.320Z,993.79
2019-01-14T07:36:01.443Z,993.75
2019-01-14T07:37:01.455Z,993.77
2019-01-14T07:38:06.576Z,993.72
2019-01-14T07:39:01.513Z,993.73
2019-01-14T07:40:01.539Z,993.77
2019-01-14T07:41:01.568Z,993.72
2019-01-14T07:42:01.594Z,993.78
2019-01-14T07:43:01.627Z,993.79
2019-01-14T07:44:01.657Z,993.83
2019-01-14T07:45:01.681Z,993.84
2019-01-14T07:46:01.711Z,993.78
2019-01-14T07:47:01.737Z,993.85
2019-01-14T07:48:01.771Z,993.99
2019-01-14T07:49:01.795Z,993.89
2019-01-14T07:50:01.890Z,993.87
2019-01-14T07:51:01.853Z,993.87
2019-01-14T07:52:01.880Z,993.85
2019-01-14T07:53:01.906Z,993.81
2019-01-14T07:54:01.939Z,993.81
2019-01-14T07:55:01.966Z,993.88
2019-01-14T07:56:01.992Z,993.99
2019-01-14T07:57:02.020Z,994.05
2019-01-14T07:58:02.050Z,994.03
2019-01-14T07:59:02.076Z,994.01
2019-01-14T08:00:02.103Z,994.02
2019-01-14T08:01:02.133Z,994.06
2019-01-14T08:02:02.162Z,994.02
2019-01-14T08:03:02.190Z,994.09
2019-01-14T08:04:02.218Z,994.12
2019-01-14T08:05:02.246Z,994.05
2019-01-14T08:06:02.272Z,994.07
2019-01-14T08:07:02.356Z,994.09
2019-01-14T08:08:02.329Z,994.09
2019-01-14T08:09:02.359Z,994.14
2019-01-14T08:10:02.385Z,994.16
2019-01-14T08:11:02.412Z,994.27
2019-01-14T08:12:02.442Z,994.25
2019-01-14T08:13:02.474Z,994.35
2019-01-14T08:14:02.497Z,994.26
2019-01-14T08:15:02.537Z,994.33
2019-01-14T08:16:02.553Z,994.38
2019-01-14T08:17:02.584Z,994.32
2019-01-14T08:18:02.615Z,994.31
2019-01-14T08:19:02.640Z,994.27
2019-01-14T08:20:02.668Z,994.38
2019-01-14T08:21:02.701Z,994.41
2019-01-14T08:22:02.724Z,994.37
2019-01-14T08:23:02.753Z,994.32
2019-01-14T08:24:02.781Z,994.50
2019-01-14T08:25:02.808Z,994.42
2019-01-14T08:26:02.841Z,994.49
2019-01-14T08:27:02.866Z,994.48
2019-01-14T08:28:02.893Z,994.44
2019-01-14T08:29:02.921Z,994.43
2019-01-14T08:30:02.949Z,994.45
2019-01-14T08:31:02.978Z,994.46
2019-01-14T08:32:03.006Z,994.58
2019-01-14T08:33:03.035Z,994.46
2019-01-14T08:34:03.062Z,994.58
2019-01-14T08:35:03.091Z,994.50
2019-01-14T08:36:03.124Z,994.66
2019-01-14T08:37:03.149Z,994.62
2019-01-14T08:38:03.177Z,994.60
2019-01-14T08:39:03.205Z,994.59
2019-01-14T08:40:03.233Z,994.64
2019-01-14T08:41:03.262Z,994.60
2019-01-14T08:42:03.293Z,994.78
2019-01-14T08:43:03.317Z,994.56
2019-01-14T08:44:03.345Z,994.58
2019-01-14T08:45:03.374Z,994.62
2019-01-14T08:46:03.401Z,994.71
2019-01-14T08:47:03.430Z,994.58
2019-01-14T08:48:03.462Z,994.65
2019-01-14T08:49:03.486Z,994.62
2019-01-14T08:50:03.514Z,994.67
2019-01-14T08:51:03.543Z,994.78
2019-01-14T08:52:03.570Z,994.63
2019-01-14T08:53:03.601Z,994.64
2019-01-14T08:54:03.629Z,994.82
2019-01-14T08:55:03.663Z,994.78
2019-01-14T08:56:03.688Z,994.84
2019-01-14T08:57:03.716Z,994.88
2019-01-14T08:58:03.741Z,994.92
2019-01-14T08:59:03.770Z,994.93
2019-01-14T09:00:03.798Z,994.76
2019-01-14T09:01:03.828Z,995.00
2019-01-14T09:02:03.854Z,995.01
2019-01-14T09:03:03.886Z,994.91
2019-01-14T09:04:03.911Z,994.97
2019-01-14T09:05:03.939Z,995.01
2019-01-14T09:06:03.966Z,995.08
2019-01-14T09:07:03.995Z,995.01
2019-01-14T09:08:04.023Z,995.02
2019-01-14T09:09:04.053Z,995.07
2019-01-14T09:10:04.079Z,995.16
2019-01-14T09:11:04.106Z,995.08
2019-01-14T09:12:04.138Z,995.05
2019-01-14T09:13:04.165Z,995.06
2019-01-14T09:14:04.193Z,995.12
2019-01-14T09:15:04.220Z,995.10
2019-01-14T09:16:04.250Z,995.16
2019-01-14T09:17:04.287Z,995.09
2019-01-14T09:18:04.306Z,995.35
2019-01-14T09:19:04.335Z,995.17
2019-01-14T09:20:04.363Z,995.09
2019-01-14T09:21:04.390Z,995.14
2019-01-14T09:22:04.417Z,995.19
2019-01-14T09:23:04.451Z,995.26
2019-01-14T09:24:04.474Z,995.19
2019-01-14T09:25:04.506Z,995.20
2019-01-14T09:26:04.531Z,995.18
2019-01-14T09:27:04.560Z,995.18
2019-01-14T09:28:04.590Z,995.19
2019-01-14T09:29:04.618Z,995.28
2019-01-14T09:30:04.643Z,995.15
2019-01-14T09:31:04.674Z,995.26
2019-01-14T09:32:04.702Z,995.24
2019-01-14T09:33:04.730Z,995.28
2019-01-14T09:34:04.757Z,995.22
2019-01-14T09:35:04.786Z,995.40
2019-01-14T09:36:04.815Z,995.35
2019-01-14T09:37:04.844Z,995.43
2019-01-14T09:38:04.871Z,995.41
2019-01-14T09:39:04.900Z,995.28
2019-01-14T09:40:04.939Z,995.34
2019-01-14T09:41:04.958Z,995.45
2019-01-14T09:42:04.984Z,995.35
2019-01-14T09:43:05.013Z,995.37
2019-01-14T09:44:05.041Z,995.42
2019-01-14T09:45:05.071Z,995.35
2019-01-14T09:46:05.099Z,995.37
2019-01-14T09:47:05.131Z,995.38
2019-01-14T09:48:05.159Z,995.46
2019-01-14T09:49:05.187Z,995.41
2019-01-14T09:50:05.218Z,995.34
2019-01-14T09:51:05.241Z,995.35
2019-01-14T09:52:05.329Z,995.34
2019-01-14T09:53:05.302Z,995.41
2019-01-14T09:54:05.331Z,995.44
2019-01-14T09:55:05.852Z,995.44
2019-01-14T09:56:05.389Z,995.50
2019-01-14T09:57:05.416Z,995.56
2019-01-14T09:58:05.446Z,995.48
2019-01-14T09:59:05.474Z,995.43
2019-01-14T10:00:05.506Z,995.35
2019-01-14T10:01:05.534Z,995.45
2019-01-14T10:02:05.562Z,995.39
2019-01-14T10:03:07.244Z,995.44
2019-01-14T10:04:05.623Z,995.49
2019-01-14T10:05:05.654Z,995.51
2019-01-14T10:06:05.683Z,995.45
2019-01-14T10:07:05.713Z,995.40
2019-01-14T10:08:05.744Z,995.45
2019-01-14T10:09:05.777Z,995.49
2019-01-14T10:10:05.806Z,995.44
2019-01-14T10:11:05.893Z,995.56
2019-01-14T10:12:05.871Z,995.53
2019-01-14T10:13:05.902Z,995.50
2019-01-14T10:14:05.934Z,995.57
2019-01-14T10:15:05.968Z,995.55
2019-01-14T10:16:05.997Z,995.50
2019-01-14T10:17:06.030Z,995.68
2019-01-14T10:18:06.062Z,995.64
2019-01-14T10:19:06.097Z,995.43
2019-01-14T10:20:06.129Z,995.51
2019-01-14T10:21:06.164Z,995.50
2019-01-14T10:22:06.195Z,995.57
2019-01-14T10:23:06.231Z,995.57
2019-01-14T10:24:06.262Z,995.56
2019-01-14T10:25:06.301Z,995.60
2019-01-14T10:26:06.330Z,995.44
2019-01-14T10:27:06.364Z,995.59
2019-01-14T10:28:06.398Z,995.58
2019-01-14T10:29:06.433Z,995.58
2019-01-14T10:30:06.465Z,995.52
2019-01-14T10:31:06.504Z,995.61
2019-01-14T10:32:06.534Z,995.54
2019-01-14T10:33:06.568Z,995.72
2019-01-14T10:34:06.601Z,995.63
2019-01-14T10:35:06.636Z,995.67
2019-01-14T10:36:06.670Z,995.57
2019-01-14T10:37:06.706Z,995.61
2019-01-14T10:38:06.740Z,995.60
2019-01-14T10:39:06.773Z,995.73
2019-01-14T10:40:06.807Z,995.52
2019-01-14T10:41:06.844Z,995.68
2019-01-14T10:42:06.877Z,995.61
2019-01-14T10:43:06.916Z,995.64
2019-01-14T10:44:06.949Z,995.57
2019-01-14T10:45:06.984Z,995.68
2019-01-14T10:46:07.018Z,995.68
2019-01-14T10:47:07.057Z,995.60
2019-01-14T10:48:07.092Z,995.57
2019-01-14T10:49:07.149Z,995.67
2019-01-14T10:50:07.164Z,995.74
2019-01-14T10:51:07.205Z,995.69
2019-01-14T10:52:07.236Z,995.52
2019-01-14T10:53:07.274Z,995.47
2019-01-14T10:54:07.311Z,995.55
2019-01-14T10:55:12.318Z,995.57
2019-01-14T10:56:07.386Z,995.63
2019-01-14T10:57:07.425Z,995.52
2019-01-14T10:58:07.458Z,995.70
2019-01-14T10:59:07.497Z,995.63
2019-01-14T11:00:07.537Z,995.71
2019-01-14T11:01:07.571Z,995.71
2019-01-14T11:02:07.609Z,995.82
2019-01-14T11:03:07.648Z,995.85
2019-01-14T11:04:07.688Z,995.76
2019-01-14T11:05:07.724Z,995.83
2019-01-14T11:06:07.760Z,995.72
2019-01-14T11:07:07.800Z,995.85
2019-01-14T11:08:07.840Z,995.67
2019-01-14T11:09:07.878Z,995.60
2019-01-14T11:10:07.917Z,995.76
2019-01-14T11:11:07.954Z,996.05
2019-01-14T11:12:07.996Z,995.98
2019-01-14T11:13:08.031Z,996.02
2019-01-14T11:14:08.069Z,995.83
2019-01-14T11:15:08.111Z,996.01
2019-01-14T11:16:08.146Z,996.00
2019-01-14T11:17:08.186Z,995.93
2019-01-14T11:18:08.222Z,995.91
2019-01-14T11:19:08.261Z,996.06
2019-01-14T11:20:08.303Z,995.93
2019-01-14T11:21:08.337Z,995.92
2019-01-14T11:22:08.375Z,996.01
2019-01-14T11:23:08.411Z,996.08
2019-01-14T11:24:08.451Z,996.00
2019-01-14T11:25:08.490Z,996.16
2019-01-14T11:26:08.525Z,995.84
2019-01-14T11:27:08.567Z,995.80
2019-01-14T11:28:08.601Z,996.01
2019-01-14T11:29:08.640Z,996.02
2019-01-14T11:30:08.677Z,996.01
2019-01-14T11:31:08.717Z,996.12
2019-01-14T11:32:08.753Z,996.18
2019-01-14T11:33:08.791Z,996.31
2019-01-14T11:34:08.825Z,996.27
2019-01-14T11:35:08.864Z,996.10
2019-01-14T11:36:08.900Z,996.15
2019-01-14T11:37:08.942Z,996.04
2019-01-14T11:38:08.975Z,996.08
2019-01-14T11:39:09.011Z,995.92
2019-01-14T11:40:09.053Z,996.02
2019-01-14T11:41:09.087Z,996.03
2019-01-14T11:42:09.125Z,995.98
2019-01-14T11:43:09.160Z,996.17
2019-01-14T11:44:09.199Z,996.18
2019-01-14T11:45:09.233Z,996.18
2019-01-14T11:46:09.270Z,996.17
2019-01-14T11:47:09.307Z,996.11
2019-01-14T11:48:09.345Z,996.13
2019-01-14T11:49:09.379Z,996.12
2019-01-14T11:50:09.415Z,996.10
2019-01-14T11:51:09.452Z,996.21
2019-01-14T11:52:09.485Z,996.05
2019-01-14T11:53:09.520Z,996.33
2019-01-14T11:54:09.556Z,996.29
2019-01-14T11:55:09.590Z,996.31
2019-01-14T11:56:09.630Z,996.35
2019-01-14T11:57:09.659Z,996.45
2019-01-14T11:58:09.701Z,996.40
2019-01-14T11:59:09.728Z,996.34
2019-01-14T12:00:09.761Z,996.32
2019-01-14T12:01:09.797Z,996.42
2019-01-14T12:02:09.829Z,996.45
2019-01-14T12:03:09.863Z,996.29
2019-01-14T12:04:09.895Z,996.23
2019-01-14T12:05:09.933Z,996.29
2019-01-14T12:06:09.963Z,996.37
2019-01-14T12:07:09.996Z,996.38
2019-01-14T12:08:10.032Z,996.33
2019-01-14T12:09:12.331Z,996.34
2019-01-14T12:10:10.093Z,996.22
2019-01-14T12:11:10.127Z,996.29
2019-01-14T12:12:10.157Z,996.31
2019-01-14T12:13:10.193Z,996.42
2019-01-14T12:14:10.223Z,996.32
2019-01-14T12:15:10.254Z,996.40
2019-01-14T12:16:10.287Z,996.46
2019-01-14T12:17:10.319Z,996.38
2019-01-14T12:18:10.350Z,996.57
2019-01-14T12:19:10.380Z,996.41
2019-01-14T12:20:10.414Z,996.36
2019-01-14T12:21:10.445Z,996.40
2019-01-14T12:22:10.476Z,996.35
2019-01-14T12:23:10.507Z,996.24
2019-01-14T12:24:10.537Z,996.35
2019-01-14T12:25:10.571Z,996.21
2019-01-14T12:26:10.602Z,996.29
2019-01-14T12:27:10.631Z,996.34
2019-01-14T12:28:10.669Z,996.38
2019-01-14T12:29:10.694Z,996.36